LPE2480 SPJC-KMIA
Flight info
| Callsign | LPE2480 |
|---|---|
| Flight time | N/A |
| Altitude | 35000 |
| Route | ILROL UM795 COLBY DCT NIBEO DCT ALTIB UM779 ZEUSS VIICE2 |
| Aircraft | B772/H-SDE2E3FGHIJ5LORVWXY/LB1D1 |
Departure
| Time | 2026-05-07 17:14 |
|---|---|
| Airport | Jorge Chávez International Airport (SPJC) |
Arrival
| Time | N/A |
|---|---|
| Airport | Miami International Airport (KMIA) |
| Time | Latitude | Longitude | Altitude | Speed | Heading |
|---|---|---|---|---|---|
| 2026-05-07 16:57 | -12.02586 | -77.10944 | 123 ft | 0 kts | 333° |
| 2026-05-07 17:03 | -12.02582 | -77.10946 | 123 ft | 0 kts | 336° |
| 2026-05-07 17:03 | -12.02578 | -77.10947 | 123 ft | 1 kts | 343° |
| 2026-05-07 17:03 | -12.02567 | -77.10950 | 123 ft | 2 kts | 343° |
| 2026-05-07 17:03 | -12.02550 | -77.10957 | 123 ft | 3 kts | 338° |
| 2026-05-07 17:04 | -12.02528 | -77.10973 | 123 ft | 4 kts | 316° |
| 2026-05-07 17:04 | -12.02507 | -77.11000 | 123 ft | 5 kts | 303° |
| 2026-05-07 17:04 | -12.02485 | -77.11036 | 123 ft | 6 kts | 301° |
| 2026-05-07 17:04 | -12.02457 | -77.11076 | 123 ft | 7 kts | 315° |
| 2026-05-07 17:05 | -12.02412 | -77.11108 | 123 ft | 8 kts | 331° |
| 2026-05-07 17:05 | -12.02359 | -77.11137 | 123 ft | 9 kts | 332° |
| 2026-05-07 17:05 | -12.02299 | -77.11166 | 123 ft | 9 kts | 336° |
| 2026-05-07 17:05 | -12.02236 | -77.11196 | 123 ft | 10 kts | 334° |
| 2026-05-07 17:06 | -12.02168 | -77.11229 | 123 ft | 11 kts | 334° |
| 2026-05-07 17:06 | -12.02098 | -77.11264 | 123 ft | 11 kts | 334° |
| 2026-05-07 17:06 | -12.02026 | -77.11301 | 123 ft | 11 kts | 334° |
| 2026-05-07 17:06 | -12.01950 | -77.11338 | 123 ft | 12 kts | 334° |
| 2026-05-07 17:07 | -12.01871 | -77.11377 | 123 ft | 12 kts | 335° |
| 2026-05-07 17:07 | -12.01791 | -77.11416 | 123 ft | 13 kts | 334° |
| 2026-05-07 17:07 | -12.01709 | -77.11456 | 123 ft | 13 kts | 334° |
| 2026-05-07 17:07 | -12.01625 | -77.11498 | 123 ft | 13 kts | 334° |
| 2026-05-07 17:08 | -12.01540 | -77.11540 | 123 ft | 13 kts | 334° |
| 2026-05-07 17:08 | -12.01453 | -77.11583 | 123 ft | 13 kts | 334° |
| 2026-05-07 17:08 | -12.01365 | -77.11626 | 123 ft | 14 kts | 334° |
| 2026-05-07 17:08 | -12.01276 | -77.11670 | 123 ft | 14 kts | 334° |
| 2026-05-07 17:09 | -12.01186 | -77.11715 | 123 ft | 14 kts | 334° |
| 2026-05-07 17:09 | -12.01095 | -77.11758 | 123 ft | 14 kts | 334° |
| 2026-05-07 17:09 | -12.01004 | -77.11803 | 123 ft | 14 kts | 333° |
| 2026-05-07 17:09 | -12.00912 | -77.11851 | 123 ft | 14 kts | 333° |
| 2026-05-07 17:10 | -12.00821 | -77.11894 | 123 ft | 14 kts | 335° |
| 2026-05-07 17:10 | -12.00727 | -77.11939 | 123 ft | 14 kts | 333° |
| 2026-05-07 17:10 | -12.00681 | -77.11999 | 123 ft | 7 kts | 277° |
| 2026-05-07 17:10 | -12.00687 | -77.12040 | 123 ft | 0 kts | 249° |
| 2026-05-07 17:12 | -12.00691 | -77.12049 | 123 ft | 2 kts | 249° |
| 2026-05-07 17:12 | -12.00701 | -77.12071 | 123 ft | 4 kts | 234° |
| 2026-05-07 17:13 | -12.00730 | -77.12092 | 123 ft | 6 kts | 202° |
| 2026-05-07 17:13 | -12.00779 | -77.12107 | 123 ft | 8 kts | 193° |
| 2026-05-07 17:13 | -12.00826 | -77.12101 | 123 ft | 0 kts | 160° |
| 2026-05-07 17:13 | -12.00831 | -77.12099 | 123 ft | 1 kts | 160° |
| 2026-05-07 17:14 | -12.00951 | -77.12042 | 123 ft | 52 kts | 154° |
| 2026-05-07 17:14 | -12.01507 | -77.11768 | 123 ft | 123 kts | 154° |
| 2026-05-07 17:14 | -12.02431 | -77.11311 | 263 ft | 168 kts | 156° |
| 2026-05-07 17:14 | -12.03496 | -77.10778 | 887 ft | 178 kts | 154° |
| 2026-05-07 17:15 | -12.04596 | -77.10187 | 1668 ft | 177 kts | 156° |
| 2026-05-07 17:15 | -12.05738 | -77.09663 | 1989 ft | 190 kts | 157° |
| 2026-05-07 17:15 | -12.07015 | -77.09051 | 2330 ft | 208 kts | 155° |
| 2026-05-07 17:15 | -12.08364 | -77.08385 | 2742 ft | 223 kts | 155° |
| 2026-05-07 17:16 | -12.09793 | -77.07679 | 3115 ft | 238 kts | 153° |
| 2026-05-07 17:16 | -12.11341 | -77.06913 | 3483 ft | 252 kts | 154° |
| 2026-05-07 17:16 | -12.12935 | -77.06132 | 4057 ft | 257 kts | 156° |
| 2026-05-07 17:16 | -12.14677 | -77.05766 | 4597 ft | 263 kts | 182° |
| 2026-05-07 17:17 | -12.16447 | -77.06258 | 5131 ft | 270 kts | 209° |
| 2026-05-07 17:17 | -12.17812 | -77.07562 | 5716 ft | 275 kts | 237° |
| 2026-05-07 17:17 | -12.18464 | -77.09388 | 5969 ft | 281 kts | 264° |
| 2026-05-07 17:17 | -12.18308 | -77.11366 | 6002 ft | 280 kts | 280° |
| 2026-05-07 17:18 | -12.17923 | -77.13316 | 6001 ft | 278 kts | 281° |
| 2026-05-07 17:18 | -12.17525 | -77.15253 | 6001 ft | 278 kts | 281° |
| 2026-05-07 17:18 | -12.17125 | -77.17193 | 6001 ft | 278 kts | 281° |
| 2026-05-07 17:18 | -12.16726 | -77.19132 | 6002 ft | 278 kts | 281° |
| 2026-05-07 17:19 | -12.16326 | -77.21069 | 6001 ft | 279 kts | 281° |
| 2026-05-07 17:19 | -12.15929 | -77.22994 | 6002 ft | 278 kts | 281° |
| 2026-05-07 17:19 | -12.15509 | -77.24922 | 5998 ft | 278 kts | 287° |
| 2026-05-07 17:19 | -12.14559 | -77.26622 | 5992 ft | 279 kts | 314° |
| 2026-05-07 17:20 | -12.12969 | -77.27856 | 6431 ft | 285 kts | 328° |
| 2026-05-07 17:20 | -12.11284 | -77.28857 | 7173 ft | 282 kts | 331° |
| 2026-05-07 17:20 | -12.09579 | -77.29814 | 7723 ft | 285 kts | 332° |
| 2026-05-07 17:20 | -12.07830 | -77.30787 | 8297 ft | 287 kts | 332° |
| 2026-05-07 17:21 | -12.06073 | -77.31763 | 8864 ft | 290 kts | 332° |
| 2026-05-07 17:21 | -12.04299 | -77.32750 | 9420 ft | 292 kts | 332° |
| 2026-05-07 17:21 | -12.02528 | -77.33735 | 9949 ft | 295 kts | 332° |
| 2026-05-07 17:21 | -12.00691 | -77.34757 | 10309 ft | 305 kts | 332° |
| 2026-05-07 17:22 | -11.98789 | -77.35814 | 10453 ft | 321 kts | 332° |
| 2026-05-07 17:22 | -11.96783 | -77.36929 | 10596 ft | 336 kts | 332° |
| 2026-05-07 17:22 | -11.94691 | -77.38093 | 10718 ft | 351 kts | 332° |
| 2026-05-07 17:22 | -11.92508 | -77.39307 | 10807 ft | 365 kts | 332° |
| 2026-05-07 17:23 | -11.90236 | -77.40569 | 10895 ft | 378 kts | 332° |
| 2026-05-07 17:23 | -11.87913 | -77.41859 | 11186 ft | 384 kts | 332° |
| 2026-05-07 17:23 | -11.85575 | -77.43159 | 11582 ft | 387 kts | 332° |
| 2026-05-07 17:23 | -11.83186 | -77.44443 | 11973 ft | 390 kts | 336° |
| 2026-05-07 17:24 | -11.80602 | -77.45364 | 12355 ft | 393 kts | 347° |
| 2026-05-07 17:24 | -11.77911 | -77.45768 | 12777 ft | 395 kts | 358° |
| 2026-05-07 17:24 | -11.75172 | -77.45647 | 13234 ft | 395 kts | 9° |
| 2026-05-07 17:24 | -11.72534 | -77.45010 | 13714 ft | 396 kts | 20° |
| 2026-05-07 17:25 | -11.70030 | -77.43870 | 14186 ft | 397 kts | 31° |
| 2026-05-07 17:25 | -11.67712 | -77.42336 | 14669 ft | 398 kts | 36° |
| 2026-05-07 17:25 | -11.65442 | -77.40732 | 15172 ft | 401 kts | 36° |
| 2026-05-07 17:25 | -11.63154 | -77.39110 | 15678 ft | 403 kts | 36° |
| 2026-05-07 17:26 | -11.60839 | -77.37467 | 16183 ft | 406 kts | 36° |
| 2026-05-07 17:26 | -11.58518 | -77.35822 | 16674 ft | 408 kts | 36° |
| 2026-05-07 17:26 | -11.56196 | -77.34174 | 17153 ft | 411 kts | 36° |
| 2026-05-07 17:26 | -11.53857 | -77.32516 | 17629 ft | 414 kts | 36° |
| 2026-05-07 17:27 | -11.51469 | -77.30822 | 18116 ft | 416 kts | 36° |
| 2026-05-07 17:27 | -11.49091 | -77.29136 | 18596 ft | 419 kts | 36° |
| 2026-05-07 17:27 | -11.46727 | -77.27460 | 19064 ft | 422 kts | 36° |
| 2026-05-07 17:27 | -11.44299 | -77.25738 | 19539 ft | 424 kts | 36° |
| 2026-05-07 17:28 | -11.41896 | -77.24036 | 20007 ft | 426 kts | 36° |
| 2026-05-07 17:28 | -11.39452 | -77.22304 | 20468 ft | 429 kts | 36° |
| 2026-05-07 17:28 | -11.36999 | -77.20567 | 20922 ft | 431 kts | 36° |
| 2026-05-07 17:28 | -11.34552 | -77.18834 | 21361 ft | 434 kts | 36° |
| 2026-05-07 17:29 | -11.32072 | -77.17078 | 21788 ft | 437 kts | 36° |
| 2026-05-07 17:29 | -11.29514 | -77.15354 | 22207 ft | 440 kts | 31° |
| 2026-05-07 17:29 | -11.26765 | -77.14033 | 22611 ft | 444 kts | 21° |
| 2026-05-07 17:29 | -11.23804 | -77.13173 | 23020 ft | 448 kts | 12° |
| 2026-05-07 17:30 | -11.20698 | -77.12817 | 23439 ft | 452 kts | 2° |
| 2026-05-07 17:30 | -11.17527 | -77.12998 | 23845 ft | 455 kts | 352° |
| 2026-05-07 17:30 | -11.14435 | -77.13655 | 24249 ft | 458 kts | 347° |
| 2026-05-07 17:30 | -11.11373 | -77.14436 | 24663 ft | 461 kts | 346° |
| 2026-05-07 17:31 | -11.08269 | -77.15234 | 25081 ft | 463 kts | 346° |
| 2026-05-07 17:31 | -11.05128 | -77.16039 | 25501 ft | 465 kts | 346° |
| 2026-05-07 17:31 | -11.01992 | -77.16842 | 25904 ft | 467 kts | 346° |
| 2026-05-07 17:31 | -10.98865 | -77.17641 | 26305 ft | 469 kts | 345° |
| 2026-05-07 17:32 | -10.95679 | -77.18455 | 26695 ft | 471 kts | 345° |
| 2026-05-07 17:32 | -10.92528 | -77.19258 | 27058 ft | 473 kts | 345° |
| 2026-05-07 17:32 | -10.89329 | -77.20074 | 27417 ft | 475 kts | 345° |
| 2026-05-07 17:32 | -10.86112 | -77.20893 | 27766 ft | 477 kts | 345° |
| 2026-05-07 17:33 | -10.82892 | -77.21713 | 28096 ft | 480 kts | 345° |
| 2026-05-07 17:33 | -10.79684 | -77.22530 | 28408 ft | 482 kts | 344° |
| 2026-05-07 17:33 | -10.76395 | -77.23367 | 28731 ft | 484 kts | 344° |
| 2026-05-07 17:33 | -10.73143 | -77.24194 | 29052 ft | 486 kts | 344° |
| 2026-05-07 17:34 | -10.69881 | -77.25023 | 29362 ft | 488 kts | 344° |
| 2026-05-07 17:34 | -10.66616 | -77.25853 | 29661 ft | 490 kts | 344° |
| 2026-05-07 17:34 | -10.63291 | -77.26698 | 29960 ft | 492 kts | 343° |
| 2026-05-07 17:34 | -10.60001 | -77.27534 | 30312 ft | 492 kts | 343° |
| 2026-05-07 17:35 | -10.56702 | -77.28371 | 30736 ft | 491 kts | 343° |
| 2026-05-07 17:35 | -10.53397 | -77.29207 | 31178 ft | 489 kts | 345° |
| 2026-05-07 17:35 | -10.50076 | -77.29750 | 31570 ft | 491 kts | 352° |
| 2026-05-07 17:35 | -10.46680 | -77.29962 | 31943 ft | 491 kts | 354° |
| 2026-05-07 17:36 | -10.43242 | -77.30130 | 32326 ft | 491 kts | 354° |
| 2026-05-07 17:36 | -10.39874 | -77.30292 | 32725 ft | 490 kts | 354° |
| 2026-05-07 17:36 | -10.36461 | -77.30456 | 33132 ft | 489 kts | 354° |
| 2026-05-07 17:36 | -10.33083 | -77.30621 | 33519 ft | 488 kts | 354° |
| 2026-05-07 17:37 | -10.29707 | -77.30785 | 33893 ft | 487 kts | 354° |
| 2026-05-07 17:37 | -10.26366 | -77.30947 | 34260 ft | 486 kts | 354° |
| 2026-05-07 17:37 | -10.23005 | -77.31110 | 34645 ft | 485 kts | 354° |
| 2026-05-07 17:37 | -10.19662 | -77.31273 | 35052 ft | 483 kts | 354° |
| 2026-05-07 17:38 | -10.16303 | -77.31437 | 35220 ft | 484 kts | 354° |
| 2026-05-07 17:38 | -10.12966 | -77.31600 | 35254 ft | 482 kts | 354° |
| 2026-05-07 17:38 | -10.06309 | -77.31925 | 35306 ft | 480 kts | 354° |
| 2026-05-07 17:39 | -9.99654 | -77.32250 | 35311 ft | 480 kts | 354° |
| 2026-05-07 17:39 | -9.92988 | -77.32576 | 35312 ft | 483 kts | 354° |
| 2026-05-07 17:40 | -9.86325 | -77.32901 | 35310 ft | 482 kts | 354° |
| 2026-05-07 17:40 | -9.79603 | -77.33229 | 35310 ft | 482 kts | 354° |
| 2026-05-07 17:41 | -9.72970 | -77.33552 | 35311 ft | 482 kts | 354° |
| 2026-05-07 17:41 | -9.66241 | -77.33881 | 35320 ft | 483 kts | 354° |
| 2026-05-07 17:42 | -9.59577 | -77.34205 | 35328 ft | 483 kts | 354° |
| 2026-05-07 17:42 | -9.52863 | -77.34532 | 35331 ft | 483 kts | 354° |
| 2026-05-07 17:43 | -9.46156 | -77.34859 | 35331 ft | 484 kts | 354° |
| 2026-05-07 17:43 | -9.39479 | -77.35183 | 35331 ft | 484 kts | 354° |
| 2026-05-07 17:44 | -9.32801 | -77.35508 | 35331 ft | 484 kts | 354° |
| 2026-05-07 17:44 | -9.26098 | -77.35834 | 35332 ft | 485 kts | 354° |
| 2026-05-07 17:45 | -9.19384 | -77.36160 | 35331 ft | 485 kts | 354° |
| 2026-05-07 17:45 | -9.12640 | -77.36488 | 35332 ft | 485 kts | 354° |
| 2026-05-07 17:46 | -9.05925 | -77.36814 | 35312 ft | 485 kts | 354° |
| 2026-05-07 17:46 | -8.99192 | -77.37141 | 35278 ft | 486 kts | 354° |
| 2026-05-07 17:47 | -8.92493 | -77.37466 | 35251 ft | 486 kts | 354° |
| 2026-05-07 17:47 | -8.85719 | -77.37795 | 35248 ft | 487 kts | 354° |
| 2026-05-07 17:48 | -8.78975 | -77.38122 | 35248 ft | 487 kts | 354° |
| 2026-05-07 17:48 | -8.72232 | -77.38449 | 35248 ft | 487 kts | 354° |
| 2026-05-07 17:49 | -8.65486 | -77.38776 | 35248 ft | 488 kts | 354° |
| 2026-05-07 17:49 | -8.58749 | -77.39102 | 35249 ft | 488 kts | 354° |
| 2026-05-07 17:50 | -8.51974 | -77.39430 | 35249 ft | 488 kts | 354° |
| 2026-05-07 17:50 | -8.45228 | -77.39757 | 35248 ft | 489 kts | 354° |
| 2026-05-07 17:51 | -8.38436 | -77.40086 | 35240 ft | 489 kts | 354° |
| 2026-05-07 17:51 | -8.31671 | -77.40413 | 35231 ft | 489 kts | 354° |
| 2026-05-07 17:52 | -8.24897 | -77.40740 | 35229 ft | 490 kts | 354° |
| 2026-05-07 17:52 | -8.18122 | -77.41067 | 35229 ft | 490 kts | 354° |
| 2026-05-07 17:53 | -8.11314 | -77.41397 | 35229 ft | 490 kts | 354° |
| 2026-05-07 17:53 | -8.04561 | -77.41723 | 35229 ft | 490 kts | 354° |
| 2026-05-07 17:54 | -7.97768 | -77.42051 | 35229 ft | 491 kts | 354° |
| 2026-05-07 17:54 | -7.90979 | -77.42379 | 35230 ft | 491 kts | 354° |
| 2026-05-07 17:55 | -7.84160 | -77.42708 | 35227 ft | 491 kts | 354° |
| 2026-05-07 17:55 | -7.77378 | -77.43035 | 35210 ft | 491 kts | 354° |
| 2026-05-07 17:56 | -7.70567 | -77.43364 | 35184 ft | 492 kts | 354° |
| 2026-05-07 17:56 | -7.63740 | -77.43693 | 35166 ft | 492 kts | 354° |
| 2026-05-07 17:57 | -7.58071 | -77.43966 | 35165 ft | 492 kts | 354° |
| 2026-05-07 17:57 | -7.50108 | -77.44350 | 35166 ft | 492 kts | 354° |
| 2026-05-07 17:58 | -7.43293 | -77.44678 | 35166 ft | 492 kts | 354° |
| 2026-05-07 17:58 | -7.36485 | -77.45006 | 35166 ft | 492 kts | 354° |
| 2026-05-07 17:59 | -7.29670 | -77.45334 | 35188 ft | 492 kts | 354° |
| 2026-05-07 17:59 | -7.22869 | -77.45661 | 35223 ft | 491 kts | 354° |
| 2026-05-07 18:00 | -7.16073 | -77.45989 | 35249 ft | 491 kts | 354° |
| 2026-05-07 18:00 | -7.09266 | -77.46317 | 35250 ft | 491 kts | 354° |
| 2026-05-07 18:01 | -7.02474 | -77.46645 | 35250 ft | 491 kts | 354° |
| 2026-05-07 18:01 | -6.95685 | -77.46972 | 35250 ft | 491 kts | 354° |
| 2026-05-07 18:02 | -6.85475 | -77.47464 | 35247 ft | 491 kts | 354° |
| 2026-05-07 18:03 | -6.78706 | -77.47790 | 35247 ft | 490 kts | 354° |
| 2026-05-07 18:03 | -6.71916 | -77.48117 | 35248 ft | 490 kts | 354° |
| 2026-05-07 18:04 | -6.65121 | -77.48444 | 35248 ft | 491 kts | 354° |
| 2026-05-07 18:04 | -6.58302 | -77.48771 | 35281 ft | 490 kts | 354° |
| 2026-05-07 18:05 | -6.51527 | -77.49096 | 35309 ft | 490 kts | 354° |
| 2026-05-07 18:05 | -6.44737 | -77.49421 | 35310 ft | 490 kts | 354° |
| 2026-05-07 18:06 | -6.37956 | -77.49746 | 35310 ft | 490 kts | 354° |
| 2026-05-07 18:06 | -6.31186 | -77.50071 | 35311 ft | 490 kts | 354° |
| 2026-05-07 18:07 | -6.24391 | -77.50396 | 35311 ft | 490 kts | 354° |
| 2026-05-07 18:07 | -6.17608 | -77.50721 | 35311 ft | 490 kts | 354° |
| 2026-05-07 18:08 | -6.10831 | -77.51045 | 35311 ft | 490 kts | 354° |
| 2026-05-07 18:08 | -6.04062 | -77.51369 | 35307 ft | 490 kts | 354° |
| 2026-05-07 18:09 | -5.97267 | -77.51695 | 35290 ft | 490 kts | 354° |
| 2026-05-07 18:09 | -5.90488 | -77.52019 | 35273 ft | 490 kts | 354° |
| 2026-05-07 18:10 | -5.83721 | -77.52341 | 35268 ft | 490 kts | 354° |
| 2026-05-07 18:10 | -5.76915 | -77.52666 | 35268 ft | 490 kts | 354° |
| 2026-05-07 18:11 | -5.70137 | -77.52991 | 35268 ft | 490 kts | 354° |
| 2026-05-07 18:11 | -5.63326 | -77.53316 | 35268 ft | 490 kts | 354° |
| 2026-05-07 18:12 | -5.56538 | -77.53639 | 35268 ft | 491 kts | 354° |
| 2026-05-07 18:12 | -5.49764 | -77.53963 | 35269 ft | 490 kts | 354° |
| 2026-05-07 18:13 | -5.42990 | -77.54286 | 35269 ft | 490 kts | 354° |
| 2026-05-07 18:13 | -5.36155 | -77.54612 | 35255 ft | 490 kts | 354° |
| 2026-05-07 18:14 | -5.29386 | -77.54935 | 35238 ft | 490 kts | 354° |
| 2026-05-07 18:14 | -5.22603 | -77.55258 | 35229 ft | 491 kts | 354° |
| 2026-05-07 18:15 | -5.15786 | -77.55583 | 35229 ft | 491 kts | 354° |
| 2026-05-07 18:15 | -5.08969 | -77.55908 | 35229 ft | 491 kts | 354° |
| 2026-05-07 18:16 | -5.02170 | -77.56232 | 35229 ft | 491 kts | 354° |
| 2026-05-07 18:16 | -4.95397 | -77.56554 | 35229 ft | 491 kts | 354° |
| 2026-05-07 18:17 | -4.88607 | -77.56878 | 35188 ft | 491 kts | 355° |
| 2026-05-07 18:17 | -4.81781 | -77.57203 | 35134 ft | 492 kts | 355° |
| 2026-05-07 18:18 | -4.74982 | -77.57526 | 35103 ft | 491 kts | 355° |
| 2026-05-07 18:18 | -4.68152 | -77.57851 | 35102 ft | 492 kts | 355° |
| 2026-05-07 18:19 | -4.61331 | -77.58176 | 35102 ft | 492 kts | 355° |
| 2026-05-07 18:19 | -4.54544 | -77.58499 | 35103 ft | 492 kts | 355° |
| 2026-05-07 18:20 | -4.47739 | -77.58823 | 35103 ft | 492 kts | 355° |
| 2026-05-07 18:20 | -4.40901 | -77.59148 | 35103 ft | 492 kts | 355° |
| 2026-05-07 18:21 | -4.34112 | -77.59471 | 35104 ft | 492 kts | 355° |
| 2026-05-07 18:21 | -4.27284 | -77.59795 | 35107 ft | 492 kts | 354° |
| 2026-05-07 18:22 | -4.20494 | -77.60118 | 35116 ft | 492 kts | 354° |
| 2026-05-07 18:22 | -4.13679 | -77.60442 | 35124 ft | 491 kts | 354° |
| 2026-05-07 18:23 | -4.06884 | -77.60765 | 35125 ft | 491 kts | 354° |
| 2026-05-07 18:23 | -4.00090 | -77.61088 | 35125 ft | 491 kts | 354° |
| 2026-05-07 18:24 | -3.93271 | -77.61412 | 35126 ft | 491 kts | 355° |
| 2026-05-07 18:24 | -3.86485 | -77.61734 | 35123 ft | 491 kts | 355° |
| 2026-05-07 18:25 | -3.79677 | -77.62058 | 35123 ft | 492 kts | 355° |
| 2026-05-07 18:25 | -3.72863 | -77.62381 | 35123 ft | 492 kts | 355° |
| 2026-05-07 18:26 | -3.66064 | -77.62704 | 35123 ft | 491 kts | 355° |
| 2026-05-07 18:26 | -3.59239 | -77.63027 | 35132 ft | 492 kts | 355° |
| 2026-05-07 18:27 | -3.52415 | -77.63351 | 35141 ft | 491 kts | 355° |
| 2026-05-07 18:27 | -3.45613 | -77.63674 | 35145 ft | 491 kts | 355° |
| 2026-05-07 18:28 | -3.38820 | -77.63996 | 35145 ft | 492 kts | 355° |
| 2026-05-07 18:28 | -3.32031 | -77.64318 | 35146 ft | 491 kts | 355° |
| 2026-05-07 18:29 | -3.25206 | -77.64642 | 35146 ft | 491 kts | 355° |
| 2026-05-07 18:29 | -3.18419 | -77.64964 | 35147 ft | 491 kts | 355° |
| 2026-05-07 18:30 | -3.11617 | -77.65286 | 35151 ft | 491 kts | 355° |
| 2026-05-07 18:30 | -3.04796 | -77.65610 | 35152 ft | 491 kts | 355° |
| 2026-05-07 18:31 | -2.98010 | -77.65932 | 35151 ft | 491 kts | 355° |
| 2026-05-07 18:31 | -2.91201 | -77.66273 | 35152 ft | 491 kts | 355° |
| 2026-05-07 18:32 | -2.84434 | -77.66673 | 35148 ft | 491 kts | 355° |
| 2026-05-07 18:32 | -2.77606 | -77.67076 | 35148 ft | 491 kts | 355° |
| 2026-05-07 18:33 | -2.70817 | -77.67475 | 35148 ft | 491 kts | 355° |
| 2026-05-07 18:33 | -2.64029 | -77.67873 | 35148 ft | 491 kts | 355° |
| 2026-05-07 18:34 | -2.57216 | -77.68270 | 35148 ft | 489 kts | 355° |
| 2026-05-07 18:34 | -2.50497 | -77.68663 | 35153 ft | 489 kts | 355° |
| 2026-05-07 18:35 | -2.43694 | -77.69060 | 35162 ft | 488 kts | 355° |
| 2026-05-07 18:35 | -2.36944 | -77.69454 | 35170 ft | 488 kts | 355° |
| 2026-05-07 18:36 | -2.30204 | -77.69847 | 35170 ft | 488 kts | 355° |
| 2026-05-07 18:36 | -2.23464 | -77.70241 | 35171 ft | 488 kts | 355° |
| 2026-05-07 18:37 | -2.16664 | -77.70637 | 35171 ft | 488 kts | 355° |
| 2026-05-07 18:37 | -2.09928 | -77.71030 | 35171 ft | 488 kts | 355° |
| 2026-05-07 18:38 | -2.03201 | -77.71422 | 35171 ft | 487 kts | 355° |
| 2026-05-07 18:38 | -1.96442 | -77.71816 | 35171 ft | 488 kts | 355° |
| 2026-05-07 18:39 | -1.89712 | -77.72208 | 35172 ft | 487 kts | 355° |
| 2026-05-07 18:39 | -1.82936 | -77.72604 | 35178 ft | 487 kts | 355° |
| 2026-05-07 18:40 | -1.76216 | -77.72996 | 35187 ft | 487 kts | 355° |
| 2026-05-07 18:40 | -1.69502 | -77.73387 | 35190 ft | 487 kts | 355° |
| 2026-05-07 18:41 | -1.62717 | -77.73782 | 35190 ft | 487 kts | 355° |
| 2026-05-07 18:41 | -1.55972 | -77.74175 | 35190 ft | 487 kts | 355° |
| 2026-05-07 18:42 | -1.49247 | -77.74567 | 35190 ft | 487 kts | 355° |
| 2026-05-07 18:42 | -1.42507 | -77.74960 | 35190 ft | 487 kts | 355° |
| 2026-05-07 18:43 | -1.35754 | -77.75354 | 35191 ft | 487 kts | 355° |
| 2026-05-07 18:43 | -1.28998 | -77.75748 | 35191 ft | 487 kts | 355° |
| 2026-05-07 18:44 | -1.22297 | -77.76138 | 35191 ft | 487 kts | 355° |
| 2026-05-07 18:44 | -1.15537 | -77.76532 | 35191 ft | 487 kts | 355° |
| 2026-05-07 18:45 | -1.08804 | -77.76924 | 35191 ft | 487 kts | 355° |
| 2026-05-07 18:45 | -1.02068 | -77.77316 | 35191 ft | 486 kts | 355° |
| 2026-05-07 18:46 | -0.95359 | -77.77707 | 35192 ft | 486 kts | 355° |
| 2026-05-07 18:46 | -0.88618 | -77.78100 | 35190 ft | 485 kts | 355° |
| 2026-05-07 18:47 | -0.81903 | -77.78491 | 35189 ft | 486 kts | 355° |
| 2026-05-07 18:47 | -0.75149 | -77.78885 | 35190 ft | 486 kts | 355° |
| 2026-05-07 18:48 | -0.68430 | -77.79276 | 35189 ft | 485 kts | 355° |
| 2026-05-07 18:48 | -0.61732 | -77.79666 | 35189 ft | 485 kts | 355° |
| 2026-05-07 18:49 | -0.55030 | -77.80057 | 35172 ft | 485 kts | 355° |
| 2026-05-07 18:49 | -0.48269 | -77.80450 | 35155 ft | 485 kts | 355° |
| 2026-05-07 18:50 | -0.41552 | -77.80843 | 35149 ft | 485 kts | 355° |
| 2026-05-07 18:50 | -0.34860 | -77.81238 | 35149 ft | 485 kts | 355° |
| 2026-05-07 18:51 | -0.28137 | -77.81634 | 35149 ft | 485 kts | 355° |
| 2026-05-07 18:51 | -0.21416 | -77.82030 | 35148 ft | 484 kts | 356° |
| 2026-05-07 18:52 | -0.14730 | -77.82424 | 35149 ft | 484 kts | 356° |
| 2026-05-07 18:52 | -0.08044 | -77.82818 | 35194 ft | 484 kts | 356° |
| 2026-05-07 18:53 | -0.01342 | -77.83212 | 35245 ft | 482 kts | 356° |
| 2026-05-07 18:53 | 0.05316 | -77.83604 | 35273 ft | 483 kts | 356° |
| 2026-05-07 18:54 | 0.11978 | -77.83997 | 35272 ft | 482 kts | 356° |
| 2026-05-07 18:54 | 0.18697 | -77.84393 | 35272 ft | 482 kts | 356° |
| 2026-05-07 18:55 | 0.25359 | -77.84785 | 35272 ft | 482 kts | 356° |
| 2026-05-07 18:55 | 0.32045 | -77.85179 | 35272 ft | 482 kts | 356° |
| 2026-05-07 18:56 | 0.38703 | -77.85572 | 35272 ft | 484 kts | 355° |
| 2026-05-07 18:56 | 0.45393 | -77.85966 | 35272 ft | 483 kts | 355° |
| 2026-05-07 18:57 | 0.52073 | -77.86359 | 35290 ft | 483 kts | 355° |
| 2026-05-07 18:57 | 0.58789 | -77.86755 | 35349 ft | 482 kts | 355° |
| 2026-05-07 18:58 | 0.65465 | -77.87148 | 35409 ft | 483 kts | 355° |
| 2026-05-07 18:58 | 0.72135 | -77.87541 | 35416 ft | 483 kts | 356° |
| 2026-05-07 18:59 | 0.78815 | -77.87935 | 35416 ft | 482 kts | 356° |
| 2026-05-07 18:59 | 0.85470 | -77.88314 | 35416 ft | 481 kts | 356° |
| 2026-05-07 19:00 | 0.92139 | -77.88678 | 35416 ft | 481 kts | 356° |
| 2026-05-07 19:00 | 0.98777 | -77.89042 | 35416 ft | 481 kts | 356° |
| 2026-05-07 19:01 | 1.05466 | -77.89410 | 35416 ft | 481 kts | 356° |
| 2026-05-07 19:01 | 1.12094 | -77.89774 | 35415 ft | 480 kts | 356° |
| 2026-05-07 19:02 | 1.18754 | -77.90140 | 35357 ft | 481 kts | 356° |
| 2026-05-07 19:02 | 1.25415 | -77.90506 | 35272 ft | 480 kts | 356° |
| 2026-05-07 19:03 | 1.32094 | -77.90873 | 35211 ft | 481 kts | 356° |
| 2026-05-07 19:03 | 1.38712 | -77.91237 | 35210 ft | 480 kts | 356° |
| 2026-05-07 19:04 | 1.45359 | -77.91603 | 35194 ft | 480 kts | 356° |
| 2026-05-07 19:04 | 1.52018 | -77.91969 | 35190 ft | 480 kts | 356° |
| 2026-05-07 19:05 | 1.58647 | -77.92334 | 35190 ft | 479 kts | 356° |
| 2026-05-07 19:05 | 1.65319 | -77.92701 | 35190 ft | 479 kts | 356° |
| 2026-05-07 19:06 | 1.71939 | -77.93065 | 35190 ft | 479 kts | 356° |
| 2026-05-07 19:06 | 1.81880 | -77.93613 | 35166 ft | 479 kts | 356° |
| 2026-05-07 19:07 | 1.88490 | -77.93976 | 35123 ft | 479 kts | 356° |
| 2026-05-07 19:07 | 1.95141 | -77.94342 | 35087 ft | 479 kts | 356° |
| 2026-05-07 19:08 | 2.01755 | -77.94706 | 35086 ft | 479 kts | 356° |
| 2026-05-07 19:08 | 2.08401 | -77.95072 | 35086 ft | 479 kts | 356° |
| 2026-05-07 19:09 | 2.15035 | -77.95438 | 35086 ft | 479 kts | 356° |
| 2026-05-07 19:09 | 2.21638 | -77.95801 | 35086 ft | 479 kts | 356° |
| 2026-05-07 19:10 | 2.28300 | -77.96168 | 35072 ft | 479 kts | 356° |
| 2026-05-07 19:10 | 2.34901 | -77.96531 | 35029 ft | 479 kts | 356° |
| 2026-05-07 19:11 | 2.41516 | -77.96896 | 34987 ft | 478 kts | 356° |
| 2026-05-07 19:11 | 2.48148 | -77.97260 | 34982 ft | 478 kts | 356° |
| 2026-05-07 19:12 | 2.54756 | -77.97625 | 34982 ft | 478 kts | 356° |
| 2026-05-07 19:12 | 2.61406 | -77.97991 | 34982 ft | 479 kts | 356° |
| 2026-05-07 19:13 | 2.68015 | -77.98355 | 34982 ft | 479 kts | 356° |
| 2026-05-07 19:13 | 2.74624 | -77.98719 | 34982 ft | 479 kts | 356° |
| 2026-05-07 19:14 | 2.81290 | -77.99087 | 34982 ft | 479 kts | 356° |
| 2026-05-07 19:14 | 2.87924 | -77.99452 | 34982 ft | 479 kts | 356° |
| 2026-05-07 19:15 | 2.94536 | -77.99817 | 34993 ft | 479 kts | 356° |
| 2026-05-07 19:15 | 3.01181 | -78.00183 | 35010 ft | 478 kts | 356° |
| 2026-05-07 19:16 | 3.07797 | -78.00548 | 35022 ft | 478 kts | 356° |
| 2026-05-07 19:16 | 3.14379 | -78.00911 | 35022 ft | 478 kts | 356° |
| 2026-05-07 19:17 | 3.21001 | -78.01276 | 35024 ft | 478 kts | 356° |
| 2026-05-07 19:17 | 3.27611 | -78.01640 | 35021 ft | 478 kts | 356° |
| 2026-05-07 19:18 | 3.34229 | -78.02006 | 35020 ft | 478 kts | 356° |
| 2026-05-07 19:18 | 3.40819 | -78.02369 | 35019 ft | 478 kts | 356° |
| 2026-05-07 19:19 | 3.47460 | -78.02735 | 35019 ft | 478 kts | 356° |
| 2026-05-07 19:19 | 3.54064 | -78.03100 | 35017 ft | 478 kts | 356° |
| 2026-05-07 19:20 | 3.60711 | -78.03467 | 35003 ft | 478 kts | 356° |
| 2026-05-07 19:20 | 3.67291 | -78.03830 | 34988 ft | 478 kts | 356° |
| 2026-05-07 19:21 | 3.73931 | -78.04196 | 34982 ft | 478 kts | 356° |
| 2026-05-07 19:21 | 3.80519 | -78.04560 | 34982 ft | 478 kts | 356° |
| 2026-05-07 19:22 | 3.87128 | -78.04925 | 34982 ft | 478 kts | 356° |
| 2026-05-07 19:22 | 3.93741 | -78.05290 | 34982 ft | 478 kts | 356° |
| 2026-05-07 19:23 | 4.00390 | -78.05658 | 34982 ft | 478 kts | 356° |
| 2026-05-07 19:23 | 4.07016 | -78.06023 | 34982 ft | 478 kts | 356° |
| 2026-05-07 19:24 | 4.13624 | -78.06389 | 34982 ft | 478 kts | 356° |
| 2026-05-07 19:24 | 4.20206 | -78.06753 | 34981 ft | 477 kts | 356° |
| 2026-05-07 19:25 | 4.26839 | -78.07120 | 34982 ft | 478 kts | 356° |
| 2026-05-07 19:25 | 4.33422 | -78.07484 | 34982 ft | 477 kts | 356° |
| 2026-05-07 19:26 | 4.40044 | -78.07850 | 34982 ft | 477 kts | 356° |
| 2026-05-07 19:26 | 4.46665 | -78.08216 | 34982 ft | 477 kts | 356° |
| 2026-05-07 19:27 | 4.53245 | -78.08580 | 34981 ft | 476 kts | 356° |
| 2026-05-07 19:27 | 4.59862 | -78.08946 | 34982 ft | 476 kts | 356° |
| 2026-05-07 19:28 | 4.66437 | -78.09309 | 34982 ft | 476 kts | 356° |
| 2026-05-07 19:28 | 4.73004 | -78.09673 | 34982 ft | 476 kts | 356° |
| 2026-05-07 19:29 | 4.79606 | -78.10039 | 34981 ft | 475 kts | 356° |
| 2026-05-07 19:29 | 4.86143 | -78.10400 | 34981 ft | 473 kts | 356° |
| 2026-05-07 19:30 | 4.92714 | -78.10764 | 34981 ft | 473 kts | 356° |
| 2026-05-07 19:30 | 4.99262 | -78.11128 | 34981 ft | 473 kts | 356° |
| 2026-05-07 19:31 | 5.05804 | -78.11490 | 34980 ft | 472 kts | 356° |
| 2026-05-07 19:31 | 5.12334 | -78.11852 | 34982 ft | 472 kts | 356° |
| 2026-05-07 19:32 | 5.18832 | -78.12212 | 34982 ft | 471 kts | 356° |
| 2026-05-07 19:32 | 5.25373 | -78.12574 | 34982 ft | 471 kts | 356° |
| 2026-05-07 19:33 | 5.31863 | -78.12934 | 34982 ft | 471 kts | 356° |
| 2026-05-07 19:33 | 5.38380 | -78.13296 | 34981 ft | 470 kts | 356° |
| 2026-05-07 19:34 | 5.44875 | -78.13656 | 34982 ft | 470 kts | 356° |
| 2026-05-07 19:34 | 5.51386 | -78.14017 | 34982 ft | 470 kts | 356° |
| 2026-05-07 19:35 | 5.57909 | -78.14379 | 34981 ft | 469 kts | 356° |
| 2026-05-07 19:35 | 5.64387 | -78.14738 | 34981 ft | 469 kts | 356° |
| 2026-05-07 19:36 | 5.70863 | -78.15098 | 34981 ft | 469 kts | 356° |
| 2026-05-07 19:36 | 5.77353 | -78.15459 | 34981 ft | 469 kts | 356° |
| 2026-05-07 19:37 | 5.83868 | -78.15820 | 34981 ft | 468 kts | 356° |
| 2026-05-07 19:37 | 5.90317 | -78.16179 | 34981 ft | 468 kts | 356° |
| 2026-05-07 19:38 | 5.96821 | -78.16541 | 34980 ft | 468 kts | 356° |
| 2026-05-07 19:38 | 6.03278 | -78.16899 | 34980 ft | 468 kts | 356° |
| 2026-05-07 19:39 | 6.09769 | -78.17260 | 34980 ft | 468 kts | 356° |
| 2026-05-07 19:39 | 6.16265 | -78.17622 | 34982 ft | 468 kts | 356° |
| 2026-05-07 19:40 | 6.22740 | -78.17982 | 34982 ft | 468 kts | 356° |
| 2026-05-07 19:40 | 6.29221 | -78.18342 | 34982 ft | 468 kts | 356° |
| 2026-05-07 19:41 | 6.35712 | -78.18703 | 34982 ft | 468 kts | 356° |
| 2026-05-07 19:41 | 6.42194 | -78.19064 | 34981 ft | 468 kts | 356° |
| 2026-05-07 19:42 | 6.48669 | -78.19424 | 34981 ft | 468 kts | 356° |
| 2026-05-07 19:42 | 6.55169 | -78.19787 | 34981 ft | 469 kts | 356° |
| 2026-05-07 19:43 | 6.61617 | -78.20146 | 34981 ft | 469 kts | 356° |
| 2026-05-07 19:43 | 6.68139 | -78.20509 | 34981 ft | 469 kts | 356° |
| 2026-05-07 19:44 | 6.74628 | -78.20871 | 34981 ft | 469 kts | 356° |
| 2026-05-07 19:44 | 6.81120 | -78.21233 | 34981 ft | 469 kts | 356° |
| 2026-05-07 19:45 | 6.87611 | -78.21227 | 34981 ft | 470 kts | 2° |
| 2026-05-07 19:45 | 6.94134 | -78.20908 | 34981 ft | 470 kts | 2° |
| 2026-05-07 19:46 | 7.00631 | -78.20593 | 34980 ft | 470 kts | 2° |
| 2026-05-07 19:46 | 7.07140 | -78.20279 | 34979 ft | 470 kts | 2° |
| 2026-05-07 19:47 | 7.13672 | -78.19965 | 34972 ft | 470 kts | 2° |
| 2026-05-07 19:47 | 7.20145 | -78.19653 | 34964 ft | 471 kts | 2° |
| 2026-05-07 19:48 | 7.26686 | -78.19339 | 34961 ft | 471 kts | 2° |
| 2026-05-07 19:48 | 7.33193 | -78.19027 | 34961 ft | 471 kts | 2° |
| 2026-05-07 19:49 | 7.39742 | -78.18713 | 34961 ft | 471 kts | 2° |
| 2026-05-07 19:49 | 7.46274 | -78.18398 | 34961 ft | 471 kts | 2° |
| 2026-05-07 19:50 | 7.52769 | -78.18087 | 34960 ft | 471 kts | 2° |
| 2026-05-07 19:50 | 7.59292 | -78.17773 | 34960 ft | 470 kts | 1° |
| 2026-05-07 19:51 | 7.65822 | -78.17459 | 34960 ft | 471 kts | 1° |
| 2026-05-07 19:51 | 7.72348 | -78.17145 | 34960 ft | 471 kts | 1° |
| 2026-05-07 19:52 | 7.78843 | -78.16833 | 34960 ft | 471 kts | 1° |
| 2026-05-07 19:52 | 7.85385 | -78.16519 | 34960 ft | 471 kts | 1° |
| 2026-05-07 19:53 | 7.91923 | -78.16204 | 34960 ft | 471 kts | 1° |
| 2026-05-07 19:53 | 7.98427 | -78.15891 | 34960 ft | 471 kts | 1° |
| 2026-05-07 19:54 | 8.04943 | -78.15578 | 34960 ft | 471 kts | 1° |
| 2026-05-07 19:54 | 8.11489 | -78.15262 | 34960 ft | 471 kts | 1° |
| 2026-05-07 19:55 | 8.17967 | -78.14950 | 34961 ft | 471 kts | 1° |
| 2026-05-07 19:55 | 8.24488 | -78.14636 | 34960 ft | 471 kts | 2° |
| 2026-05-07 19:56 | 8.31045 | -78.14320 | 34961 ft | 471 kts | 2° |
| 2026-05-07 19:56 | 8.37549 | -78.14006 | 34961 ft | 471 kts | 2° |
| 2026-05-07 19:57 | 8.44059 | -78.14045 | 34962 ft | 470 kts | 356° |
| 2026-05-07 19:57 | 8.50574 | -78.14431 | 34961 ft | 470 kts | 356° |
| 2026-05-07 19:58 | 8.57062 | -78.14816 | 34960 ft | 469 kts | 356° |
| 2026-05-07 19:58 | 8.63532 | -78.15197 | 34960 ft | 469 kts | 356° |
| 2026-05-07 19:59 | 8.70032 | -78.15579 | 34960 ft | 468 kts | 356° |
| 2026-05-07 19:59 | 8.76522 | -78.15961 | 34960 ft | 469 kts | 356° |
| 2026-05-07 20:00 | 8.82992 | -78.16341 | 34960 ft | 468 kts | 356° |
| 2026-05-07 20:00 | 8.89457 | -78.16720 | 34960 ft | 467 kts | 356° |
| 2026-05-07 20:01 | 8.95947 | -78.17101 | 34960 ft | 467 kts | 357° |
| 2026-05-07 20:01 | 9.02398 | -78.17480 | 34961 ft | 468 kts | 357° |
| 2026-05-07 20:02 | 9.08873 | -78.17860 | 34960 ft | 467 kts | 357° |
| 2026-05-07 20:02 | 9.15323 | -78.18240 | 34961 ft | 467 kts | 357° |
| 2026-05-07 20:03 | 9.21804 | -78.18620 | 34962 ft | 467 kts | 357° |
| 2026-05-07 20:03 | 9.28233 | -78.18999 | 34962 ft | 467 kts | 358° |
| 2026-05-07 20:04 | 9.34718 | -78.19380 | 34962 ft | 466 kts | 358° |
| 2026-05-07 20:04 | 9.41161 | -78.19759 | 34961 ft | 466 kts | 358° |
| 2026-05-07 20:05 | 9.47620 | -78.20139 | 34962 ft | 466 kts | 358° |
| 2026-05-07 20:05 | 9.54080 | -78.20520 | 34961 ft | 466 kts | 358° |
| 2026-05-07 20:06 | 9.60534 | -78.20900 | 34961 ft | 466 kts | 358° |
| 2026-05-07 20:06 | 9.66948 | -78.21278 | 34961 ft | 466 kts | 358° |
| 2026-05-07 20:07 | 9.73422 | -78.21660 | 34961 ft | 465 kts | 358° |
| 2026-05-07 20:07 | 9.79853 | -78.22039 | 34961 ft | 465 kts | 358° |
| 2026-05-07 20:08 | 9.86278 | -78.22418 | 34960 ft | 465 kts | 358° |
| 2026-05-07 20:08 | 9.92736 | -78.22800 | 34960 ft | 465 kts | 358° |
| 2026-05-07 20:09 | 9.99186 | -78.23180 | 34960 ft | 465 kts | 358° |
| 2026-05-07 20:10 | 10.08794 | -78.23748 | 34960 ft | 465 kts | 358° |
| 2026-05-07 20:10 | 10.15263 | -78.24130 | 34962 ft | 465 kts | 358° |
| 2026-05-07 20:11 | 10.21693 | -78.24511 | 34962 ft | 465 kts | 358° |
| 2026-05-07 20:11 | 10.28093 | -78.24889 | 34962 ft | 465 kts | 358° |
| 2026-05-07 20:12 | 10.34532 | -78.25270 | 34962 ft | 465 kts | 358° |
| 2026-05-07 20:12 | 10.40981 | -78.25652 | 34962 ft | 465 kts | 358° |
| 2026-05-07 20:13 | 10.47402 | -78.26032 | 34962 ft | 465 kts | 358° |
| 2026-05-07 20:13 | 10.53841 | -78.26414 | 34962 ft | 465 kts | 358° |
| 2026-05-07 20:14 | 10.60271 | -78.26795 | 34962 ft | 465 kts | 358° |
| 2026-05-07 20:14 | 10.66693 | -78.27176 | 34961 ft | 465 kts | 358° |
| 2026-05-07 20:15 | 10.73138 | -78.27558 | 34961 ft | 465 kts | 358° |
| 2026-05-07 20:15 | 10.79555 | -78.27939 | 34961 ft | 465 kts | 358° |
| 2026-05-07 20:16 | 10.85998 | -78.28322 | 34961 ft | 464 kts | 358° |
| 2026-05-07 20:16 | 10.92426 | -78.28703 | 34961 ft | 464 kts | 358° |
| 2026-05-07 20:17 | 10.98836 | -78.29085 | 34961 ft | 464 kts | 358° |
| 2026-05-07 20:17 | 11.05253 | -78.29466 | 34960 ft | 464 kts | 358° |
| 2026-05-07 20:18 | 11.11689 | -78.29848 | 34962 ft | 464 kts | 358° |
| 2026-05-07 20:18 | 11.18115 | -78.30231 | 34963 ft | 464 kts | 358° |
| 2026-05-07 20:19 | 11.24494 | -78.30611 | 34963 ft | 464 kts | 358° |
| 2026-05-07 20:19 | 11.30920 | -78.30994 | 34963 ft | 464 kts | 358° |
| 2026-05-07 20:20 | 11.37327 | -78.31375 | 34962 ft | 463 kts | 359° |
| 2026-05-07 20:20 | 11.43755 | -78.31758 | 34970 ft | 463 kts | 359° |
| 2026-05-07 20:21 | 11.50170 | -78.32141 | 34978 ft | 463 kts | 359° |
| 2026-05-07 20:21 | 11.56546 | -78.32522 | 34983 ft | 463 kts | 359° |
| 2026-05-07 20:22 | 11.62957 | -78.32904 | 34983 ft | 463 kts | 359° |
| 2026-05-07 20:22 | 11.69374 | -78.33287 | 34983 ft | 463 kts | 359° |
| 2026-05-07 20:23 | 11.75770 | -78.33669 | 34983 ft | 463 kts | 359° |
| 2026-05-07 20:23 | 11.82207 | -78.34055 | 34982 ft | 463 kts | 359° |
| 2026-05-07 20:24 | 11.88634 | -78.34438 | 34985 ft | 463 kts | 359° |
| 2026-05-07 20:24 | 11.95021 | -78.34821 | 34994 ft | 463 kts | 359° |
| 2026-05-07 20:25 | 12.01455 | -78.35206 | 35002 ft | 463 kts | 359° |
| 2026-05-07 20:25 | 12.07814 | -78.35586 | 35003 ft | 462 kts | 359° |
| 2026-05-07 20:26 | 12.14210 | -78.35970 | 35005 ft | 462 kts | 359° |
| 2026-05-07 20:26 | 12.20647 | -78.36356 | 35005 ft | 462 kts | 359° |
| 2026-05-07 20:27 | 12.27029 | -78.36739 | 35005 ft | 462 kts | 359° |
| 2026-05-07 20:27 | 12.33412 | -78.37122 | 35005 ft | 463 kts | 358° |
| 2026-05-07 20:28 | 12.39822 | -78.37507 | 35004 ft | 463 kts | 358° |
| 2026-05-07 20:28 | 12.46219 | -78.37891 | 35004 ft | 463 kts | 358° |
| 2026-05-07 20:29 | 12.52660 | -78.38278 | 35008 ft | 463 kts | 358° |
| 2026-05-07 20:29 | 12.59040 | -78.38663 | 35016 ft | 463 kts | 358° |
| 2026-05-07 20:30 | 12.65462 | -78.39049 | 35024 ft | 463 kts | 358° |
| 2026-05-07 20:30 | 12.71844 | -78.39433 | 35024 ft | 462 kts | 358° |
| 2026-05-07 20:31 | 12.78256 | -78.39819 | 35024 ft | 463 kts | 358° |
| 2026-05-07 20:31 | 12.84661 | -78.40205 | 35024 ft | 463 kts | 358° |
| 2026-05-07 20:32 | 12.90962 | -78.40585 | 35024 ft | 463 kts | 358° |
| 2026-05-07 20:32 | 12.97355 | -78.40971 | 35024 ft | 462 kts | 358° |
| 2026-05-07 20:33 | 13.03774 | -78.41358 | 35023 ft | 462 kts | 358° |
| 2026-05-07 20:33 | 13.10159 | -78.41744 | 35023 ft | 462 kts | 358° |
| 2026-05-07 20:34 | 13.16579 | -78.42132 | 35026 ft | 462 kts | 358° |
| 2026-05-07 20:34 | 13.22965 | -78.42518 | 35026 ft | 462 kts | 358° |
| 2026-05-07 20:35 | 13.29362 | -78.42905 | 35025 ft | 461 kts | 358° |
| 2026-05-07 20:35 | 13.35745 | -78.43291 | 35025 ft | 461 kts | 358° |
| 2026-05-07 20:36 | 13.42128 | -78.43677 | 35025 ft | 461 kts | 358° |
| 2026-05-07 20:36 | 13.48505 | -78.44064 | 35025 ft | 461 kts | 358° |
| 2026-05-07 20:37 | 13.54868 | -78.44450 | 35025 ft | 461 kts | 358° |
| 2026-05-07 20:37 | 13.61272 | -78.44838 | 35024 ft | 461 kts | 358° |
| 2026-05-07 20:38 | 13.67637 | -78.45225 | 35024 ft | 461 kts | 358° |
| 2026-05-07 20:38 | 13.74004 | -78.45611 | 35024 ft | 460 kts | 358° |
| 2026-05-07 20:39 | 13.80369 | -78.45998 | 35027 ft | 460 kts | 358° |
| 2026-05-07 20:39 | 13.86765 | -78.46387 | 35035 ft | 460 kts | 358° |
| 2026-05-07 20:40 | 13.93128 | -78.46774 | 35043 ft | 460 kts | 358° |
| 2026-05-07 20:40 | 13.99513 | -78.47162 | 35044 ft | 460 kts | 358° |
| 2026-05-07 20:41 | 14.05884 | -78.47549 | 35044 ft | 461 kts | 358° |
| 2026-05-07 20:41 | 14.12223 | -78.47935 | 35047 ft | 461 kts | 358° |
| 2026-05-07 20:42 | 14.18625 | -78.48326 | 35027 ft | 461 kts | 358° |
| 2026-05-07 20:42 | 14.24998 | -78.48714 | 35026 ft | 461 kts | 358° |
| 2026-05-07 20:43 | 14.31375 | -78.49103 | 35025 ft | 460 kts | 358° |
| 2026-05-07 20:43 | 14.37732 | -78.49492 | 35025 ft | 460 kts | 358° |
| 2026-05-07 20:44 | 14.44118 | -78.49882 | 35025 ft | 460 kts | 358° |
| 2026-05-07 20:44 | 14.50468 | -78.50270 | 35025 ft | 460 kts | 358° |
| 2026-05-07 20:45 | 14.56823 | -78.50659 | 35025 ft | 460 kts | 358° |
| 2026-05-07 20:45 | 14.63211 | -78.51050 | 35024 ft | 460 kts | 358° |
| 2026-05-07 20:46 | 14.69589 | -78.51440 | 35024 ft | 461 kts | 358° |
| 2026-05-07 20:46 | 14.75981 | -78.51832 | 35024 ft | 460 kts | 358° |
| 2026-05-07 20:47 | 14.82320 | -78.52220 | 35024 ft | 460 kts | 358° |
| 2026-05-07 20:47 | 14.88691 | -78.52612 | 35023 ft | 460 kts | 358° |
| 2026-05-07 20:48 | 14.95081 | -78.53004 | 35023 ft | 460 kts | 358° |
| 2026-05-07 20:48 | 15.01462 | -78.53382 | 35021 ft | 460 kts | 359° |
| 2026-05-07 20:49 | 15.07848 | -78.53515 | 35023 ft | 460 kts | 0° |
| 2026-05-07 20:49 | 15.14232 | -78.53638 | 35026 ft | 460 kts | 0° |
| 2026-05-07 20:50 | 15.20596 | -78.53768 | 35026 ft | 460 kts | 0° |
| 2026-05-07 20:50 | 15.26978 | -78.53904 | 35026 ft | 460 kts | 360° |
| 2026-05-07 20:51 | 15.33321 | -78.54041 | 35025 ft | 460 kts | 360° |
| 2026-05-07 20:51 | 15.39731 | -78.54181 | 35025 ft | 461 kts | 360° |
| 2026-05-07 20:52 | 15.46077 | -78.54321 | 35025 ft | 460 kts | 360° |
| 2026-05-07 20:52 | 15.52487 | -78.54462 | 35024 ft | 459 kts | 360° |
| 2026-05-07 20:53 | 15.58846 | -78.54601 | 35031 ft | 459 kts | 360° |
| 2026-05-07 20:53 | 15.65221 | -78.54742 | 35038 ft | 460 kts | 360° |
| 2026-05-07 20:54 | 15.71583 | -78.54883 | 35045 ft | 460 kts | 360° |
| 2026-05-07 20:54 | 15.77976 | -78.55024 | 35044 ft | 460 kts | 360° |
| 2026-05-07 20:55 | 15.84357 | -78.55166 | 35044 ft | 460 kts | 360° |
| 2026-05-07 20:55 | 15.90714 | -78.55306 | 35044 ft | 460 kts | 360° |
| 2026-05-07 20:56 | 15.97074 | -78.55447 | 35044 ft | 460 kts | 360° |
| 2026-05-07 20:56 | 16.03449 | -78.55589 | 35043 ft | 459 kts | 360° |
| 2026-05-07 20:57 | 16.09801 | -78.55730 | 35043 ft | 458 kts | 360° |
| 2026-05-07 20:57 | 16.16188 | -78.55872 | 35047 ft | 458 kts | 360° |
| 2026-05-07 20:58 | 16.22507 | -78.56012 | 35046 ft | 458 kts | 360° |
| 2026-05-07 20:58 | 16.28891 | -78.56154 | 35045 ft | 458 kts | 360° |
| 2026-05-07 20:59 | 16.35228 | -78.56295 | 35046 ft | 459 kts | 360° |
| 2026-05-07 20:59 | 16.41592 | -78.56436 | 35045 ft | 459 kts | 359° |
| 2026-05-07 21:00 | 16.47950 | -78.56578 | 35045 ft | 459 kts | 359° |
| 2026-05-07 21:00 | 16.54311 | -78.56720 | 35045 ft | 459 kts | 359° |
| 2026-05-07 21:01 | 16.60673 | -78.56862 | 35045 ft | 458 kts | 359° |
| 2026-05-07 21:01 | 16.67015 | -78.57003 | 35045 ft | 458 kts | 359° |
| 2026-05-07 21:02 | 16.73367 | -78.57145 | 35045 ft | 459 kts | 359° |
| 2026-05-07 21:02 | 16.79747 | -78.57288 | 35044 ft | 458 kts | 359° |
| 2026-05-07 21:03 | 16.86098 | -78.57430 | 35044 ft | 458 kts | 359° |
| 2026-05-07 21:03 | 16.92445 | -78.57571 | 35043 ft | 458 kts | 359° |
| 2026-05-07 21:04 | 16.98756 | -78.57713 | 35043 ft | 457 kts | 359° |
| 2026-05-07 21:04 | 17.05121 | -78.57856 | 35043 ft | 457 kts | 359° |
| 2026-05-07 21:05 | 17.11424 | -78.57997 | 35045 ft | 457 kts | 359° |
| 2026-05-07 21:05 | 17.17800 | -78.58140 | 35046 ft | 457 kts | 359° |
| 2026-05-07 21:06 | 17.24113 | -78.58282 | 35046 ft | 457 kts | 359° |
| 2026-05-07 21:06 | 17.30449 | -78.58424 | 35045 ft | 457 kts | 359° |
| 2026-05-07 21:07 | 17.36813 | -78.58567 | 35045 ft | 457 kts | 359° |
| 2026-05-07 21:07 | 17.43116 | -78.58709 | 35045 ft | 457 kts | 359° |
| 2026-05-07 21:08 | 17.49480 | -78.58852 | 35045 ft | 457 kts | 359° |
| 2026-05-07 21:08 | 17.55805 | -78.58995 | 35044 ft | 456 kts | 359° |
| 2026-05-07 21:09 | 17.62119 | -78.59138 | 35044 ft | 456 kts | 359° |
| 2026-05-07 21:09 | 17.68426 | -78.59280 | 35044 ft | 456 kts | 359° |
| 2026-05-07 21:10 | 17.74777 | -78.59423 | 35043 ft | 455 kts | 359° |
| 2026-05-07 21:10 | 17.81077 | -78.59566 | 35043 ft | 455 kts | 359° |
| 2026-05-07 21:11 | 17.87354 | -78.59708 | 35043 ft | 455 kts | 359° |
| 2026-05-07 21:11 | 17.96866 | -78.59923 | 35042 ft | 455 kts | 359° |
| 2026-05-07 21:12 | 18.03147 | -78.60065 | 35042 ft | 455 kts | 359° |
| 2026-05-07 21:12 | 18.09496 | -78.60209 | 35042 ft | 455 kts | 359° |
| 2026-05-07 21:13 | 18.15806 | -78.60352 | 35045 ft | 455 kts | 359° |
| 2026-05-07 21:13 | 18.22108 | -78.60495 | 35045 ft | 455 kts | 359° |
| 2026-05-07 21:14 | 18.28419 | -78.60638 | 35045 ft | 455 kts | 359° |
| 2026-05-07 21:14 | 18.34728 | -78.60782 | 35045 ft | 455 kts | 359° |
| 2026-05-07 21:15 | 18.41015 | -78.60925 | 35044 ft | 455 kts | 359° |
| 2026-05-07 21:15 | 18.47360 | -78.61070 | 35044 ft | 455 kts | 359° |
| 2026-05-07 21:16 | 18.53672 | -78.61213 | 35044 ft | 455 kts | 359° |
| 2026-05-07 21:16 | 18.59983 | -78.61357 | 35043 ft | 455 kts | 359° |
| 2026-05-07 21:17 | 18.66303 | -78.61501 | 35043 ft | 456 kts | 359° |
| 2026-05-07 21:17 | 18.72618 | -78.61646 | 35043 ft | 456 kts | 359° |
| 2026-05-07 21:18 | 18.78922 | -78.61790 | 35043 ft | 456 kts | 359° |
| 2026-05-07 21:18 | 18.85237 | -78.61934 | 35042 ft | 455 kts | 358° |
| 2026-05-07 21:19 | 18.91531 | -78.62078 | 35042 ft | 455 kts | 358° |
| 2026-05-07 21:19 | 18.97848 | -78.62223 | 35042 ft | 455 kts | 358° |
| 2026-05-07 21:20 | 19.04161 | -78.62367 | 35041 ft | 455 kts | 358° |
| 2026-05-07 21:20 | 19.10457 | -78.62512 | 35047 ft | 455 kts | 358° |
| 2026-05-07 21:21 | 19.16756 | -78.62656 | 35059 ft | 455 kts | 358° |
| 2026-05-07 21:21 | 19.23071 | -78.62801 | 35065 ft | 455 kts | 358° |
| 2026-05-07 21:22 | 19.29378 | -78.62946 | 35065 ft | 455 kts | 358° |
| 2026-05-07 21:22 | 19.35695 | -78.63092 | 35065 ft | 455 kts | 358° |
| 2026-05-07 21:23 | 19.42025 | -78.63238 | 35065 ft | 455 kts | 358° |
| 2026-05-07 21:23 | 19.48340 | -78.63384 | 35064 ft | 455 kts | 358° |
| 2026-05-07 21:24 | 19.54633 | -78.63528 | 35064 ft | 456 kts | 358° |
| 2026-05-07 21:24 | 19.60941 | -78.63674 | 35064 ft | 456 kts | 358° |
| 2026-05-07 21:25 | 19.67293 | -78.63821 | 35063 ft | 456 kts | 358° |
| 2026-05-07 21:25 | 19.73556 | -78.63966 | 35063 ft | 455 kts | 358° |
| 2026-05-07 21:26 | 19.79893 | -78.64112 | 35063 ft | 455 kts | 358° |
| 2026-05-07 21:26 | 19.86196 | -78.64258 | 35063 ft | 455 kts | 358° |
| 2026-05-07 21:27 | 19.92499 | -78.64404 | 35062 ft | 455 kts | 358° |
| 2026-05-07 21:27 | 19.98802 | -78.64550 | 35062 ft | 454 kts | 358° |
| 2026-05-07 21:28 | 20.05087 | -78.64508 | 35062 ft | 455 kts | 1° |
| 2026-05-07 21:28 | 20.11373 | -78.64295 | 35064 ft | 455 kts | 1° |
| 2026-05-07 21:29 | 20.17679 | -78.64095 | 35065 ft | 455 kts | 1° |
| 2026-05-07 21:29 | 20.24006 | -78.63902 | 35065 ft | 454 kts | 1° |
| 2026-05-07 21:30 | 20.30272 | -78.63715 | 35065 ft | 454 kts | 1° |
| 2026-05-07 21:30 | 20.36551 | -78.63530 | 35068 ft | 454 kts | 1° |
| 2026-05-07 21:31 | 20.42883 | -78.63344 | 35075 ft | 454 kts | 1° |
| 2026-05-07 21:31 | 20.49167 | -78.63160 | 35083 ft | 454 kts | 1° |
| 2026-05-07 21:32 | 20.55440 | -78.62976 | 35084 ft | 454 kts | 1° |
| 2026-05-07 21:32 | 20.61767 | -78.62791 | 35084 ft | 454 kts | 1° |
| 2026-05-07 21:33 | 20.68064 | -78.62607 | 35084 ft | 455 kts | 1° |
| 2026-05-07 21:33 | 20.74338 | -78.62424 | 35083 ft | 455 kts | 1° |
| 2026-05-07 21:34 | 20.80662 | -78.62238 | 35063 ft | 453 kts | 0° |
| 2026-05-07 21:34 | 20.86920 | -78.62054 | 35062 ft | 454 kts | 0° |
| 2026-05-07 21:35 | 20.93208 | -78.61870 | 35062 ft | 454 kts | 0° |
| 2026-05-07 21:35 | 20.99506 | -78.61685 | 35061 ft | 454 kts | 0° |
| 2026-05-07 21:36 | 21.05798 | -78.61500 | 35061 ft | 454 kts | 0° |
| 2026-05-07 21:36 | 21.12055 | -78.61316 | 35065 ft | 452 kts | 0° |
| 2026-05-07 21:37 | 21.18331 | -78.61131 | 35065 ft | 453 kts | 0° |
| 2026-05-07 21:37 | 21.24620 | -78.60946 | 35065 ft | 453 kts | 0° |
| 2026-05-07 21:38 | 21.30873 | -78.60761 | 35064 ft | 453 kts | 0° |
| 2026-05-07 21:38 | 21.37141 | -78.60577 | 35064 ft | 452 kts | 0° |
| 2026-05-07 21:39 | 21.43433 | -78.60390 | 35064 ft | 452 kts | 0° |
| 2026-05-07 21:39 | 21.49669 | -78.60207 | 35063 ft | 452 kts | 0° |
| 2026-05-07 21:40 | 21.55917 | -78.60021 | 35063 ft | 452 kts | 0° |
| 2026-05-07 21:40 | 21.62180 | -78.59836 | 35063 ft | 452 kts | 0° |
| 2026-05-07 21:41 | 21.68472 | -78.59650 | 35062 ft | 452 kts | 0° |
| 2026-05-07 21:41 | 21.74731 | -78.59463 | 35062 ft | 451 kts | 0° |
| 2026-05-07 21:42 | 21.80986 | -78.59278 | 35062 ft | 451 kts | 0° |
| 2026-05-07 21:42 | 21.87244 | -78.59092 | 35061 ft | 451 kts | 0° |
| 2026-05-07 21:43 | 21.93454 | -78.58907 | 35061 ft | 451 kts | 0° |
| 2026-05-07 21:43 | 21.99746 | -78.58720 | 35061 ft | 451 kts | 0° |
| 2026-05-07 21:44 | 22.05963 | -78.58534 | 35060 ft | 450 kts | 0° |
| 2026-05-07 21:44 | 22.12224 | -78.58347 | 35065 ft | 450 kts | 0° |
| 2026-05-07 21:45 | 22.18448 | -78.58162 | 35065 ft | 450 kts | 0° |
| 2026-05-07 21:45 | 22.24694 | -78.57975 | 35064 ft | 451 kts | 0° |
| 2026-05-07 21:46 | 22.30948 | -78.57788 | 35064 ft | 451 kts | 0° |
| 2026-05-07 21:46 | 22.37185 | -78.57601 | 35064 ft | 451 kts | 0° |
| 2026-05-07 21:47 | 22.43430 | -78.57414 | 35063 ft | 451 kts | 0° |
| 2026-05-07 21:47 | 22.49670 | -78.57227 | 35063 ft | 451 kts | 0° |
| 2026-05-07 21:48 | 22.55925 | -78.57040 | 35062 ft | 450 kts | 0° |
| 2026-05-07 21:48 | 22.62167 | -78.56852 | 35062 ft | 451 kts | 0° |
| 2026-05-07 21:49 | 22.68404 | -78.56664 | 35062 ft | 450 kts | 360° |
| 2026-05-07 21:49 | 22.74680 | -78.56476 | 35062 ft | 451 kts | 360° |
| 2026-05-07 21:50 | 22.80836 | -78.57000 | 35065 ft | 449 kts | 349° |
| 2026-05-07 21:50 | 22.86992 | -78.58155 | 35061 ft | 448 kts | 349° |
| 2026-05-07 21:51 | 22.93091 | -78.59305 | 35061 ft | 447 kts | 349° |
| 2026-05-07 21:51 | 22.99205 | -78.60457 | 35060 ft | 447 kts | 349° |
| 2026-05-07 21:52 | 23.05338 | -78.61613 | 35060 ft | 447 kts | 349° |
| 2026-05-07 21:52 | 23.11424 | -78.62761 | 35063 ft | 448 kts | 349° |
| 2026-05-07 21:53 | 23.17546 | -78.63916 | 35063 ft | 447 kts | 348° |
| 2026-05-07 21:53 | 23.23623 | -78.65064 | 35064 ft | 447 kts | 348° |
| 2026-05-07 21:54 | 23.29742 | -78.66222 | 35067 ft | 447 kts | 348° |
| 2026-05-07 21:54 | 23.35849 | -78.67377 | 35067 ft | 447 kts | 348° |
| 2026-05-07 21:55 | 23.41977 | -78.68538 | 35072 ft | 447 kts | 348° |
| 2026-05-07 21:55 | 23.48070 | -78.69693 | 35079 ft | 447 kts | 348° |
| 2026-05-07 21:56 | 23.54167 | -78.70850 | 35085 ft | 446 kts | 348° |
| 2026-05-07 21:56 | 23.60253 | -78.72006 | 35085 ft | 446 kts | 348° |
| 2026-05-07 21:57 | 23.66349 | -78.73165 | 35085 ft | 446 kts | 348° |
| 2026-05-07 21:57 | 23.72466 | -78.74329 | 35084 ft | 446 kts | 348° |
| 2026-05-07 21:58 | 23.78544 | -78.75487 | 35084 ft | 446 kts | 348° |
| 2026-05-07 21:58 | 23.84645 | -78.76651 | 35084 ft | 446 kts | 348° |
| 2026-05-07 21:59 | 23.90742 | -78.77814 | 35085 ft | 446 kts | 348° |
| 2026-05-07 21:59 | 23.96825 | -78.78992 | 35084 ft | 445 kts | 346° |
| 2026-05-07 22:00 | 24.02572 | -78.81336 | 35084 ft | 441 kts | 329° |
| 2026-05-07 22:00 | 24.07827 | -78.84757 | 35089 ft | 441 kts | 327° |
| 2026-05-07 22:01 | 24.13049 | -78.88207 | 35093 ft | 441 kts | 327° |
| 2026-05-07 22:01 | 24.18319 | -78.91693 | 35093 ft | 441 kts | 327° |
| 2026-05-07 22:02 | 24.23525 | -78.95142 | 35093 ft | 441 kts | 327° |
| 2026-05-07 22:02 | 24.28750 | -78.98606 | 35092 ft | 441 kts | 327° |
| 2026-05-07 22:03 | 24.34005 | -79.02093 | 35090 ft | 441 kts | 327° |
| 2026-05-07 22:03 | 24.39234 | -79.05568 | 35089 ft | 441 kts | 327° |
| 2026-05-07 22:04 | 24.44432 | -79.09025 | 35088 ft | 440 kts | 327° |
| 2026-05-07 22:04 | 24.49673 | -79.12514 | 35086 ft | 440 kts | 327° |
| 2026-05-07 22:05 | 24.54862 | -79.15971 | 35085 ft | 439 kts | 327° |
| 2026-05-07 22:05 | 24.60073 | -79.19447 | 35084 ft | 439 kts | 327° |
| 2026-05-07 22:06 | 24.65314 | -79.22947 | 35086 ft | 446 kts | 327° |
| 2026-05-07 22:06 | 24.70658 | -79.26520 | 35085 ft | 460 kts | 327° |
| 2026-05-07 22:07 | 24.76202 | -79.30229 | 35083 ft | 473 kts | 327° |
| 2026-05-07 22:07 | 24.81841 | -79.34006 | 35081 ft | 478 kts | 327° |
| 2026-05-07 22:08 | 24.87524 | -79.37815 | 35080 ft | 478 kts | 327° |
| 2026-05-07 22:08 | 24.93174 | -79.41607 | 35080 ft | 478 kts | 327° |
| 2026-05-07 22:09 | 24.98849 | -79.45419 | 35080 ft | 478 kts | 327° |
| 2026-05-07 22:09 | 25.04490 | -79.49214 | 35079 ft | 478 kts | 327° |
| 2026-05-07 22:10 | 25.10149 | -79.53025 | 35078 ft | 478 kts | 327° |
| 2026-05-07 22:10 | 25.15801 | -79.56835 | 35082 ft | 478 kts | 327° |
| 2026-05-07 22:11 | 25.21423 | -79.60629 | 35081 ft | 477 kts | 327° |
| 2026-05-07 22:11 | 25.27072 | -79.64446 | 35081 ft | 478 kts | 327° |
| 2026-05-07 22:12 | 25.32736 | -79.68277 | 35088 ft | 478 kts | 326° |
| 2026-05-07 22:12 | 25.38147 | -79.72405 | 35084 ft | 474 kts | 316° |
| 2026-05-07 22:13 | 25.42375 | -79.77972 | 35088 ft | 472 kts | 305° |
| 2026-05-07 22:13 | 25.46172 | -79.83847 | 35086 ft | 471 kts | 304° |
| 2026-05-07 22:14 | 25.49881 | -79.89615 | 35079 ft | 446 kts | 304° |
| 2026-05-07 22:14 | 25.53412 | -79.95122 | 35086 ft | 439 kts | 304° |
| 2026-05-07 22:15 | 25.55146 | -79.97829 | 35078 ft | 425 kts | 304° |
| 2026-05-07 22:15 | 25.56821 | -80.00447 | 35076 ft | 407 kts | 304° |
| 2026-05-07 22:15 | 25.58419 | -80.02946 | 35075 ft | 392 kts | 304° |
| 2026-05-07 22:15 | 25.59979 | -80.05388 | 35075 ft | 384 kts | 304° |
| 2026-05-07 22:16 | 25.63014 | -80.10145 | 35078 ft | 378 kts | 304° |
| 2026-05-07 22:16 | 25.65877 | -80.15017 | 35075 ft | 378 kts | 296° |
| 2026-05-07 22:17 | 25.68131 | -80.20280 | 35075 ft | 378 kts | 295° |
| 2026-05-07 22:17 | 25.70300 | -80.25548 | 35068 ft | 378 kts | 289° |
| 2026-05-07 22:18 | 25.70934 | -80.28359 | 35070 ft | 378 kts | 278° |
| 2026-05-07 22:18 | 25.70942 | -80.34189 | 35073 ft | 381 kts | 269° |
| 2026-05-07 22:19 | 25.70667 | -80.40050 | 35073 ft | 381 kts | 269° |
| 2026-05-07 22:19 | 25.70351 | -80.45891 | 35073 ft | 382 kts | 267° |
| 2026-05-07 22:20 | 25.69851 | -80.51751 | 35072 ft | 382 kts | 266° |
| 2026-05-07 22:20 | 25.69357 | -80.57588 | 35072 ft | 382 kts | 267° |
| 2026-05-07 22:21 | 25.68865 | -80.63439 | 35071 ft | 382 kts | 267° |
| 2026-05-07 22:21 | 25.68372 | -80.69311 | 35079 ft | 382 kts | 266° |
| 2026-05-07 22:22 | 25.67880 | -80.75168 | 35078 ft | 382 kts | 266° |
| 2026-05-07 22:22 | 25.67386 | -80.81009 | 35078 ft | 382 kts | 266° |
| 2026-05-07 22:23 | 25.66889 | -80.86872 | 35078 ft | 382 kts | 266° |
| 2026-05-07 22:23 | 25.66391 | -80.92711 | 35079 ft | 382 kts | 266° |
| 2026-05-07 22:24 | 25.65892 | -80.98538 | 35082 ft | 382 kts | 266° |
| 2026-05-07 22:24 | 25.65389 | -81.04390 | 35085 ft | 381 kts | 266° |
| 2026-05-07 22:25 | 25.64883 | -81.10249 | 35088 ft | 381 kts | 266° |
| 2026-05-07 22:25 | 25.64376 | -81.16080 | 35089 ft | 381 kts | 266° |
| 2026-05-07 22:26 | 25.63868 | -81.21911 | 35089 ft | 381 kts | 266° |
| 2026-05-07 22:26 | 25.63356 | -81.27752 | 35088 ft | 380 kts | 266° |
| 2026-05-07 22:27 | 25.62846 | -81.33549 | 35088 ft | 380 kts | 266° |
| 2026-05-07 22:27 | 25.62330 | -81.39379 | 35087 ft | 380 kts | 266° |
| 2026-05-07 22:28 | 25.61815 | -81.45173 | 35087 ft | 380 kts | 266° |
| 2026-05-07 22:28 | 25.61294 | -81.51012 | 35086 ft | 380 kts | 266° |
| 2026-05-07 22:29 | 25.60777 | -81.56785 | 35086 ft | 380 kts | 266° |
| 2026-05-07 22:29 | 25.60252 | -81.62611 | 35085 ft | 379 kts | 266° |
| 2026-05-07 22:30 | 25.59729 | -81.68395 | 35093 ft | 379 kts | 266° |
| 2026-05-07 22:30 | 25.59201 | -81.74205 | 35093 ft | 379 kts | 266° |
| 2026-05-07 22:31 | 25.58675 | -81.79967 | 35093 ft | 379 kts | 266° |
| 2026-05-07 22:31 | 25.58141 | -81.85792 | 35092 ft | 379 kts | 266° |
| 2026-05-07 22:32 | 25.57608 | -81.91580 | 35093 ft | 379 kts | 266° |
| 2026-05-07 22:32 | 25.57076 | -81.97342 | 35094 ft | 379 kts | 266° |
| 2026-05-07 22:33 | 25.56538 | -82.03131 | 35095 ft | 378 kts | 265° |
| 2026-05-07 22:33 | 25.55997 | -82.08935 | 35097 ft | 378 kts | 265° |
| 2026-05-07 22:34 | 25.55456 | -82.14713 | 35097 ft | 378 kts | 265° |
| 2026-05-07 22:34 | 25.54911 | -82.20500 | 35096 ft | 378 kts | 265° |
| 2026-05-07 22:35 | 25.54366 | -82.26276 | 35096 ft | 378 kts | 265° |
| 2026-05-07 22:35 | 25.53816 | -82.32065 | 35095 ft | 378 kts | 265° |
| 2026-05-07 22:36 | 25.53266 | -82.37845 | 35095 ft | 378 kts | 265° |
| 2026-05-07 22:36 | 25.52714 | -82.43611 | 35094 ft | 378 kts | 265° |
| 2026-05-07 22:37 | 25.52160 | -82.49385 | 35094 ft | 378 kts | 265° |
| 2026-05-07 22:37 | 25.51602 | -82.55167 | 35093 ft | 378 kts | 265° |
| 2026-05-07 22:38 | 25.51041 | -82.60957 | 35093 ft | 378 kts | 265° |
| 2026-05-07 22:38 | 25.50476 | -82.66759 | 35100 ft | 378 kts | 265° |
| 2026-05-07 22:39 | 25.49914 | -82.72517 | 35101 ft | 378 kts | 265° |
| 2026-05-07 22:39 | 25.49348 | -82.78290 | 35100 ft | 378 kts | 265° |
| 2026-05-07 22:40 | 25.48776 | -82.84097 | 35099 ft | 378 kts | 265° |
| 2026-05-07 22:40 | 25.48208 | -82.89840 | 35097 ft | 378 kts | 265° |
| 2026-05-07 22:41 | 25.47632 | -82.95639 | 35095 ft | 378 kts | 265° |
| 2026-05-07 22:41 | 25.47058 | -83.01396 | 35093 ft | 378 kts | 265° |
| 2026-05-07 22:42 | 25.46481 | -83.07164 | 35090 ft | 377 kts | 265° |
| 2026-05-07 22:42 | 25.45904 | -83.12903 | 35090 ft | 377 kts | 265° |
| 2026-05-07 22:43 | 25.45322 | -83.18677 | 35089 ft | 377 kts | 265° |
| 2026-05-07 22:43 | 25.44742 | -83.24401 | 35089 ft | 377 kts | 265° |
| 2026-05-07 22:44 | 25.44159 | -83.30141 | 35088 ft | 377 kts | 265° |
| 2026-05-07 22:44 | 25.43562 | -83.35920 | 35087 ft | 376 kts | 262° |
| 2026-05-07 22:45 | 25.41832 | -83.41334 | 35084 ft | 382 kts | 242° |
| 2026-05-07 22:45 | 25.40229 | -83.43726 | 35083 ft | 387 kts | 231° |
| 2026-05-07 22:45 | 25.38233 | -83.45728 | 35083 ft | 393 kts | 220° |
| 2026-05-07 22:46 | 25.33295 | -83.48408 | 35084 ft | 404 kts | 201° |
| 2026-05-07 22:46 | 25.27679 | -83.49080 | 35081 ft | 418 kts | 180° |
| 2026-05-07 22:46 | 25.24782 | -83.48550 | 35081 ft | 424 kts | 169° |
| 2026-05-07 22:47 | 25.22015 | -83.47459 | 35081 ft | 430 kts | 159° |
| 2026-05-07 22:47 | 25.19408 | -83.45819 | 35081 ft | 435 kts | 148° |
| 2026-05-07 22:47 | 25.17073 | -83.43684 | 35081 ft | 440 kts | 137° |
| 2026-05-07 22:48 | 25.13517 | -83.38210 | 35082 ft | 445 kts | 116° |